Terminal Aerodrome Forecast
Issued by NWS

Home | Current Version | Previous Version | Text Only | Print | Product List | Glossary On
Versions: 1 2 3 4 5 6 7 8 9 10 11 12 13 14 15 16 17
000
FTAK31 PAJN 301130
TAFASI
TAF
PASI 301130Z 3012/0112 12012KT P6SM -RA OVC040
     FM301500 12015G30KT 5SM RA BR OVC025 WS020/15040KT
     FM301800 12025G35KT 3SM RA BR BKN012 OVC020 WS020/15050KT
     FM302300 16015G25KT 6SM -SHRA BR BKN020 OVC035
     FM010600 15015KT P6SM -SHRA BKN030 OVC045=

USA.gov is the U.S. government's official web portal to all federal, state and local government web resources and services.